createdAt,value
2018-06-25T08:48:06.808Z,21.97
2018-06-25T08:51:17.630Z,27.10
2018-06-25T08:53:46.920Z,21.90
2018-06-25T08:56:16.217Z,25.37
2018-06-25T08:58:45.539Z,26.48
2018-06-25T09:01:14.869Z,23.17
2018-06-25T09:03:44.352Z,26.60
2018-06-25T09:06:13.631Z,23.13
2018-06-25T09:08:42.955Z,25.73
2018-06-25T09:11:12.263Z,20.00
2018-06-25T09:13:41.592Z,22.33
2018-06-25T09:16:13.551Z,26.12
2018-06-25T09:18:42.945Z,24.30
2018-06-25T09:21:12.228Z,29.57
2018-06-25T09:23:41.429Z,26.23
2018-06-25T09:26:10.913Z,25.03
2018-06-25T09:28:40.933Z,28.00
2018-06-25T09:31:11.147Z,28.05
2018-06-25T09:33:41.104Z,20.57
2018-06-25T09:36:11.280Z,21.77
2018-06-25T09:38:41.163Z,22.40
2018-06-25T09:41:11.273Z,23.87
2018-06-25T09:43:41.379Z,20.68
2018-06-25T09:46:12.702Z,24.67
2018-06-25T09:48:42.421Z,20.47
2018-06-25T09:51:11.698Z,17.40
2018-06-25T09:53:41.156Z,20.77
2018-06-25T09:56:11.605Z,19.23
2018-06-25T09:58:41.368Z,21.02
2018-06-25T10:01:11.922Z,19.25
2018-06-25T10:03:42.009Z,19.57
2018-06-25T10:06:11.576Z,21.07
2018-06-25T10:08:41.320Z,20.60
2018-06-25T10:11:11.324Z,24.45
2018-06-25T10:13:41.385Z,23.98
2018-06-25T10:16:11.760Z,24.85
2018-06-25T10:18:41.279Z,23.65
2018-06-25T10:21:11.248Z,25.55
2018-06-25T10:23:41.017Z,22.27
2018-06-25T10:26:11.119Z,20.30
2018-06-25T10:28:41.305Z,25.20
2018-06-25T10:31:11.430Z,22.80
2018-06-25T10:33:41.232Z,19.70
2018-06-25T10:36:11.414Z,23.05
2018-06-25T10:38:41.793Z,26.07
2018-06-25T10:41:11.848Z,21.67
2018-06-25T10:43:41.416Z,17.92
2018-06-25T10:46:11.105Z,19.87
2018-06-25T10:48:41.187Z,22.30
2018-06-25T10:51:11.297Z,21.70
2018-06-25T10:53:41.021Z,22.22
2018-06-25T10:56:11.128Z,19.77
2018-06-25T10:58:41.678Z,22.40
2018-06-25T11:01:11.448Z,18.07
2018-06-25T11:03:41.134Z,19.70
2018-06-25T11:06:11.205Z,19.50
2018-06-25T11:08:41.443Z,24.18
2018-06-25T11:11:11.481Z,20.88
2018-06-25T11:13:41.104Z,22.45
2018-06-25T11:16:11.328Z,25.13
2018-06-25T11:18:41.188Z,26.40
2018-06-25T11:21:11.220Z,22.37
2018-06-25T11:23:41.397Z,19.17
2018-06-25T11:26:11.440Z,23.20
2018-06-25T11:28:41.454Z,20.80
2018-06-25T11:31:11.440Z,20.57
2018-06-25T11:33:41.811Z,21.07
2018-06-25T11:36:11.084Z,23.75
2018-06-25T11:38:41.274Z,24.67
2018-06-25T11:41:11.483Z,22.55
2018-06-25T11:43:41.285Z,23.87
2018-06-25T11:46:11.354Z,21.63
2018-06-25T11:48:41.512Z,19.07
2018-06-25T11:51:11.504Z,21.57
2018-06-25T11:53:41.165Z,22.65
2018-06-25T11:56:11.288Z,20.27
2018-06-25T11:58:41.207Z,17.20
2018-06-25T12:01:11.372Z,17.57
2018-06-25T12:03:41.522Z,17.90
2018-06-25T12:06:11.358Z,19.57
2018-06-25T12:08:41.419Z,15.88
2018-06-25T12:11:11.501Z,20.08
2018-06-25T12:13:41.435Z,17.92
2018-06-25T12:16:11.297Z,18.57
2018-06-25T12:18:41.562Z,15.63
2018-06-25T12:21:11.591Z,19.32
2018-06-25T12:23:41.605Z,22.10
2018-06-25T12:26:11.594Z,17.17
2018-06-25T12:28:41.896Z,18.57
2018-06-25T12:31:11.499Z,22.10
2018-06-25T12:33:41.605Z,18.80
2018-06-25T12:36:12.196Z,18.23
2018-06-25T12:38:41.909Z,18.37
2018-06-25T12:41:11.722Z,17.52
2018-06-25T12:43:41.536Z,15.80
2018-06-25T12:46:11.589Z,14.43
2018-06-25T12:48:41.700Z,19.02
2018-06-25T12:51:11.385Z,19.35
2018-06-25T12:53:41.585Z,16.70
2018-06-25T12:56:11.711Z,18.30
2018-06-25T12:58:41.705Z,14.05
2018-06-25T13:01:11.610Z,24.67
2018-06-25T13:03:41.677Z,16.45
2018-06-25T13:06:11.635Z,17.57
2018-06-25T13:08:41.694Z,15.23
2018-06-25T13:11:11.618Z,14.17
2018-06-25T13:13:41.621Z,16.02
2018-06-25T13:16:11.681Z,16.55
2018-06-25T13:18:41.822Z,18.07
2018-06-25T13:21:11.690Z,20.52
2018-06-25T13:23:41.720Z,17.40
2018-06-25T13:26:11.790Z,18.62
2018-06-25T13:28:41.733Z,17.15
2018-06-25T13:31:11.733Z,15.83
2018-06-25T13:33:41.656Z,19.55
2018-06-25T13:36:11.692Z,17.35
2018-06-25T13:38:41.868Z,18.75
2018-06-25T13:41:11.713Z,18.10
2018-06-25T13:43:41.792Z,15.00
2018-06-25T13:46:11.794Z,19.17
2018-06-25T13:48:41.734Z,16.60
2018-06-25T13:51:11.806Z,15.60
2018-06-25T13:53:42.008Z,17.45
2018-06-25T13:56:11.707Z,13.70
2018-06-25T13:58:41.949Z,19.52
2018-06-25T14:01:11.804Z,18.17
2018-06-25T14:03:41.845Z,20.00
2018-06-25T14:06:11.859Z,22.00
2018-06-25T14:08:41.817Z,16.25
2018-06-25T14:11:11.855Z,18.32
2018-06-25T14:13:41.821Z,18.23
2018-06-25T14:16:11.839Z,15.58
2018-06-25T14:18:41.848Z,21.35
2018-06-25T14:21:11.892Z,19.98
2018-06-25T14:23:46.919Z,19.73
2018-06-25T14:26:16.231Z,16.57
2018-06-25T14:28:45.553Z,18.97
2018-06-25T14:31:20.385Z,21.40
2018-06-25T14:33:54.785Z,20.47
2018-06-25T14:36:24.138Z,18.00
2018-06-25T14:38:53.402Z,18.53
2018-06-25T14:41:22.694Z,23.90
2018-06-25T14:43:52.018Z,20.83
2018-06-25T14:46:21.321Z,19.07
2018-06-25T14:48:50.616Z,19.60
2018-06-25T14:51:19.893Z,18.53
2018-06-25T14:53:49.192Z,19.33
2018-06-25T14:56:18.466Z,16.43
2018-06-25T14:58:47.766Z,17.43
2018-06-25T15:01:17.090Z,17.82
2018-06-25T15:03:46.401Z,22.35
2018-06-25T15:06:16.144Z,19.87
2018-06-25T15:08:45.740Z,14.27
2018-06-25T15:11:15.106Z,18.03
2018-06-25T15:13:44.412Z,17.37
2018-06-25T15:16:13.721Z,20.67
2018-06-25T15:18:42.962Z,19.90
2018-06-25T15:21:12.238Z,14.67
2018-06-25T15:23:42.130Z,17.10
2018-06-25T15:27:39.172Z,17.47
2018-06-25T15:30:08.748Z,15.70
2018-06-25T15:32:38.146Z,15.90
2018-06-25T15:35:07.602Z,13.00
2018-06-25T15:37:36.962Z,14.23
2018-06-25T15:40:06.352Z,12.07
2018-06-25T15:42:35.634Z,15.60
2018-06-25T15:45:04.925Z,16.77
2018-06-25T15:47:34.612Z,9.93
2018-06-25T15:50:03.928Z,11.10
2018-06-25T15:52:33.210Z,11.40
2018-06-25T15:55:02.501Z,12.07
2018-06-25T15:57:31.994Z,12.97
2018-06-25T16:00:01.283Z,16.30
2018-06-25T16:02:30.615Z,11.33
2018-06-25T16:05:00.009Z,13.13
2018-06-25T16:07:29.313Z,14.60
2018-06-25T16:09:58.598Z,10.18
2018-06-25T16:12:27.913Z,13.93
2018-06-25T16:14:57.524Z,15.27
2018-06-25T16:17:26.790Z,13.03
2018-06-25T16:19:56.212Z,13.97
2018-06-25T16:22:25.440Z,11.83
2018-06-25T16:24:54.708Z,10.30
2018-06-25T16:27:24.037Z,13.10
2018-06-25T16:29:53.427Z,11.07
2018-06-25T16:32:22.744Z,11.67
2018-06-25T16:34:52.061Z,14.65
2018-06-25T16:37:21.383Z,12.00
2018-06-25T16:39:50.719Z,14.63
2018-06-25T16:42:20.093Z,11.75
2018-06-25T16:44:49.351Z,12.87
2018-06-25T16:47:18.700Z,13.23
2018-06-25T16:49:48.009Z,10.53
2018-06-25T16:52:17.275Z,17.30
2018-06-25T16:54:46.558Z,15.03
2018-06-25T16:57:15.890Z,16.10
2018-06-25T16:59:45.337Z,16.00
2018-06-25T17:02:14.542Z,13.97
2018-06-25T17:04:43.827Z,14.47
2018-06-25T17:07:13.177Z,19.82
2018-06-25T17:09:42.444Z,17.03
2018-06-25T17:12:12.179Z,20.08
2018-06-25T17:14:42.203Z,18.12
2018-06-25T17:17:12.226Z,18.82
2018-06-25T17:19:41.931Z,18.47
2018-06-25T17:22:12.041Z,19.27
2018-06-25T17:24:42.445Z,16.45
2018-06-25T17:27:12.244Z,21.52
2018-06-25T17:29:42.214Z,19.23
2018-06-25T17:32:12.216Z,16.90
2018-06-25T17:34:42.311Z,22.60
2018-06-25T17:37:12.564Z,20.30
2018-06-25T17:39:42.069Z,20.97
2018-06-25T17:42:12.264Z,25.70
2018-06-25T17:44:42.189Z,25.90
2018-06-25T17:47:12.303Z,19.02
2018-06-25T17:49:42.183Z,25.70
2018-06-25T17:52:12.528Z,26.48
2018-06-25T17:54:42.368Z,24.90
2018-06-25T17:57:12.225Z,22.82
2018-06-25T17:59:42.233Z,21.57
2018-06-25T18:02:12.340Z,26.42
2018-06-25T18:04:42.265Z,28.10
2018-06-25T18:07:12.411Z,23.00
2018-06-25T18:09:42.326Z,27.50
2018-06-25T18:12:12.277Z,28.65
2018-06-25T18:14:42.255Z,23.52
2018-06-25T18:17:12.344Z,27.15
2018-06-25T18:19:42.257Z,25.72
2018-06-25T18:22:12.253Z,22.95
2018-06-25T18:24:42.265Z,26.90
2018-06-25T18:27:12.357Z,25.75
2018-06-25T18:29:41.992Z,24.85
2018-06-25T18:32:12.212Z,21.57
2018-06-25T18:34:42.444Z,21.82
2018-06-25T18:37:12.372Z,24.20
2018-06-25T18:39:42.367Z,24.12
2018-06-25T18:42:12.466Z,24.80
2018-06-25T18:44:42.706Z,20.60
2018-06-25T18:47:12.027Z,25.05
2018-06-25T18:49:42.229Z,24.13
2018-06-25T18:52:12.398Z,23.22
2018-06-25T18:54:42.348Z,24.37
2018-06-25T18:57:12.707Z,24.55
2018-06-25T18:59:42.361Z,24.32
2018-06-25T19:02:12.364Z,22.30
2018-06-25T19:04:42.129Z,26.62
2018-06-25T19:07:12.220Z,23.47
2018-06-25T19:09:42.437Z,25.62
2018-06-25T19:12:12.555Z,24.00
2018-06-25T19:14:42.449Z,22.95
2018-06-25T19:17:12.672Z,23.95
2018-06-25T19:19:42.117Z,23.62
2018-06-25T19:22:12.237Z,25.97
2018-06-25T19:24:42.703Z,29.35
2018-06-25T19:27:12.400Z,21.75
2018-06-25T19:29:42.636Z,26.52
2018-06-25T19:32:12.537Z,23.18
2018-06-25T19:34:42.541Z,19.92
2018-06-25T19:37:12.199Z,23.83
2018-06-25T19:39:42.316Z,23.93
2018-06-25T19:42:12.534Z,24.47
2018-06-25T19:44:42.520Z,25.68
2018-06-25T19:47:12.549Z,24.85
2018-06-25T19:49:42.586Z,25.08
2018-06-25T19:52:12.558Z,21.30
2018-06-25T19:54:42.209Z,20.77
2018-06-25T19:57:12.453Z,22.77
2018-06-25T19:59:42.522Z,22.70
2018-06-25T20:02:12.528Z,24.77
2018-06-25T20:04:42.269Z,26.23
2018-06-25T20:07:12.552Z,24.50
2018-06-25T20:09:42.604Z,27.70
2018-06-25T20:12:12.609Z,24.18
2018-06-25T20:14:42.772Z,24.80
2018-06-25T20:17:12.613Z,21.62
2018-06-25T20:19:42.671Z,20.27
2018-06-25T20:22:12.672Z,21.30
2018-06-25T20:24:42.880Z,22.95
2018-06-25T20:27:13.056Z,23.55
2018-06-25T20:29:42.716Z,20.77
2018-06-25T20:32:12.704Z,22.50
2018-06-25T20:34:42.639Z,25.85
2018-06-25T20:37:12.741Z,20.92
2018-06-25T20:39:42.767Z,20.30
2018-06-25T20:42:12.724Z,24.57
2018-06-25T20:44:43.053Z,19.32
2018-06-25T20:47:12.743Z,18.42
2018-06-25T20:49:42.752Z,22.30
2018-06-25T20:52:12.480Z,20.05
2018-06-25T20:54:42.557Z,26.67
2018-06-25T20:58:29.781Z,25.50
2018-06-25T21:00:59.908Z,16.37
2018-06-25T21:03:30.137Z,22.37
2018-06-25T21:06:00.402Z,22.87
2018-06-25T21:08:30.786Z,18.07
2018-06-25T21:11:01.035Z,17.97
2018-06-25T21:13:31.218Z,19.00
2018-06-25T21:16:01.417Z,21.50
2018-06-25T21:18:31.698Z,18.77
2018-06-25T21:21:01.897Z,21.13
2018-06-25T21:23:32.149Z,20.20
2018-06-25T21:26:02.412Z,17.70
2018-06-25T21:28:32.614Z,16.93
2018-06-25T21:31:03.077Z,19.73
2018-06-25T21:33:33.345Z,19.50
2018-06-25T21:36:03.759Z,17.03
2018-06-25T21:38:33.925Z,14.77
2018-06-25T21:41:04.154Z,19.00
2018-06-25T21:43:34.546Z,17.03
2018-06-25T21:46:11.429Z,21.80
2018-06-25T21:48:44.280Z,18.05
2018-06-25T21:51:14.272Z,14.40
2018-06-25T21:53:44.321Z,12.93
2018-06-25T21:56:14.613Z,16.27
2018-06-25T21:58:44.694Z,15.20
2018-06-25T22:01:15.278Z,13.80
2018-06-25T22:03:45.563Z,15.23
2018-06-25T22:06:15.816Z,15.95
2018-06-25T22:08:46.026Z,14.43
2018-06-25T22:11:16.202Z,17.87
2018-06-25T22:13:46.452Z,15.13
2018-06-25T22:16:16.739Z,14.67
2018-06-25T22:18:46.917Z,15.40
2018-06-25T22:21:17.131Z,16.60
2018-06-25T22:23:47.293Z,13.65
2018-06-25T22:26:17.486Z,10.88
2018-06-25T22:28:47.700Z,12.50
2018-06-25T22:31:17.917Z,13.82
2018-06-25T22:33:48.159Z,11.87
2018-06-25T22:36:18.402Z,14.10
2018-06-25T22:38:48.753Z,10.87
2018-06-25T22:41:19.005Z,9.98
2018-06-25T22:43:49.217Z,10.25
2018-06-25T22:46:19.453Z,11.00
2018-06-25T22:48:49.660Z,11.08
2018-06-25T22:51:19.927Z,12.93
2018-06-25T22:53:50.183Z,11.00
2018-06-25T22:56:20.408Z,12.53
2018-06-25T22:58:50.668Z,11.73
2018-06-25T23:01:21.261Z,14.50
2018-06-25T23:03:51.638Z,14.60
2018-06-25T23:06:21.928Z,10.00
2018-06-25T23:08:52.197Z,9.90
2018-06-25T23:11:22.779Z,10.80
2018-06-25T23:13:52.976Z,10.93
2018-06-25T23:16:23.419Z,9.90
2018-06-25T23:18:53.696Z,11.57
2018-06-25T23:21:24.051Z,9.70
2018-06-25T23:23:54.270Z,10.10
2018-06-25T23:26:24.512Z,10.23
2018-06-25T23:28:58.487Z,10.77
2018-06-25T23:31:28.708Z,9.67
2018-06-25T23:33:58.965Z,14.80
2018-06-25T23:36:29.126Z,9.03
2018-06-25T23:38:59.309Z,13.17
2018-06-25T23:41:29.765Z,11.00
2018-06-25T23:44:00.013Z,15.80
2018-06-25T23:46:30.252Z,11.33
2018-06-25T23:49:00.420Z,10.32
2018-06-25T23:51:30.663Z,11.50
2018-06-25T23:54:00.925Z,10.17
2018-06-25T23:56:31.137Z,9.18
2018-06-25T23:59:01.341Z,12.57
